• Join FlightAware (Why Join?)
  • Login
  • US Flag 
01:37PM EDT


 

Airport Tracker/Info


-or-


 

Live Flight TrackerFlight Track Log ✈ VH-HUG ✈ 13-Jun-2013 ✈ YPJT / JAD - YPJT / JAD

Flight Track Log - Related Links

Times and Time Zones

All times are in EDT time to prevent confusion due to time zone crossing. See the VH-HUG flight status page for this flight to view local times or setup timezone preferences in your user account.

Time Position Orientation Groundspeed Altitude Reporting Facility
EDT Latitude Longitude Course Direction KTS MPH feet Rate Location/Type
04:15AM -32.0974 115.8812 342° North 3,000  Level Aus ATC (Calculated)
04:16AM -32.0748 115.8723 232° Southwest 136 157 900 -1,200 Descending Aus ATC (RADAR)
04:16AM -32.0885 115.8514 232° Southwest 134 154 1,000 -240 Climbing Aus ATC (RADAR)
04:17AM -32.1099 115.8509 181° South 112 129 600 -480 Descending Aus ATC (RADAR)
04:18AM -32.0958 115.8810 61° Northeast 79 91 100 -360 Descending Aus ATC (RADAR)
04:19AM -32.0937 115.8843 54° Northeast 62 71 100  Level Aus ATC (RADAR)
04:22AM -31.9451 115.9595 122° Southeast 3,000 1,680 Climbing Aus ATC (Calculated)
04:23AM -31.9822 116.0293 203° Southwest 7,000 2,280 Climbing Aus ATC (Calculated)
04:24AM -31.9822 116.0293 360° North 7,000  Level Aus ATC (Calculated)
04:24AM -31.9822 116.0293 302° West 7,000  Level Aus ATC (Calculated)
04:26AM -31.9788 116.0230 302° West  Level FlightAware Approximate
04:27AM -31.9771 116.0198 302° West  Level FlightAware Approximate
04:28AM -31.9754 116.0166 302° West  Level FlightAware Approximate
04:29AM -31.9737 116.0134 302° West  Level FlightAware Approximate
04:30AM -31.9720 116.0102 302° West  Level FlightAware Approximate
04:31AM -31.9704 116.0070 302° West  Level FlightAware Approximate
04:32AM -31.9687 116.0038 302° West  Level FlightAware Approximate
04:33AM -31.9669 116.0006 302° West  Level FlightAware Approximate
04:34AM -31.9653 115.9974 302° West  Level FlightAware Approximate
04:35AM -31.9636 115.9942 302° West  Level FlightAware Approximate
04:36AM -31.9618 115.9911 302° West  Level FlightAware Approximate
04:36AM -32.2933 116.6206 302° West 7,000  Level Aus ATC (Calculated)
04:38AM -32.2902 116.6147 302° West  Level FlightAware Approximate
04:39AM -32.2885 116.6114 302° West  Level FlightAware Approximate
04:40AM -32.2868 116.6082 302° West  Level FlightAware Approximate
04:41AM -32.2851 116.6050 302° West  Level FlightAware Approximate
04:42AM -32.2835 116.6018 302° West  Level FlightAware Approximate
04:43AM -32.2818 116.5986 302° West  Level FlightAware Approximate
04:44AM -32.2801 116.5953 302° West  Level FlightAware Approximate
04:45AM -32.2784 116.5921 302° West  Level FlightAware Approximate
04:46AM -32.2767 116.5889 302° West  Level FlightAware Approximate
04:46AM -32.5333 117.0833 301° West 3,500  Level Aus ATC (Calculated)
04:48AM -32.5306 117.0781 301° West  Level FlightAware Approximate
04:49AM -32.5290 117.0749 301° West  Level FlightAware Approximate
04:50AM -32.5273 117.0716 301° West  Level FlightAware Approximate
04:51AM -32.5256 117.0684 301° West  Level FlightAware Approximate
04:52AM -32.5239 117.0652 301° West  Level FlightAware Approximate
04:53AM -32.5223 117.0620 301° West  Level FlightAware Approximate
04:54AM -32.5206 117.0587 301° West  Level FlightAware Approximate
04:55AM -32.5189 117.0555 301° West  Level FlightAware Approximate
04:56AM -32.5173 117.0523 301° West  Level FlightAware Approximate
04:57AM -32.5156 117.0490 301° West  Level FlightAware Approximate
04:58AM -32.5139 117.0458 301° West  Level FlightAware Approximate
04:59AM -32.5123 117.0426 301° West  Level FlightAware Approximate
05:00AM -32.5106 117.0393 301° West  Level FlightAware Approximate
05:01AM -32.5089 117.0361 301° West  Level FlightAware Approximate
05:02AM -32.5073 117.0329 301° West  Level FlightAware Approximate
05:03AM -32.5056 117.0296 301° West  Level FlightAware Approximate
05:04AM -32.5039 117.0264 301° West  Level FlightAware Approximate
05:05AM -32.5022 117.0232 301° West  Level FlightAware Approximate
05:06AM -32.5006 117.0200 301° West  Level FlightAware Approximate
05:07AM -32.4989 117.0167 301° West  Level FlightAware Approximate
05:08AM -32.4972 117.0135 301° West  Level FlightAware Approximate
05:09AM -32.4956 117.0103 301° West  Level FlightAware Approximate
05:10AM -32.4939 117.0070 301° West  Level FlightAware Approximate
05:10AM -32.3139 116.6602 122° Southeast 3,500  Level Aus ATC (Calculated)
05:11AM -32.4922 117.0038 301° West  Level FlightAware Approximate
05:12AM -32.3128 116.6561 204° Southwest  Level Estimated
05:13AM -32.3118 116.6525 288° West  Level FlightAware Approximate
05:13AM -32.3139 116.6602 288° West 3,500  Level Aus ATC (Calculated)
05:15AM -32.3121 116.6536 288° West  Level FlightAware Approximate
05:16AM -32.3111 116.6500 288° West  Level FlightAware Approximate
05:17AM -32.3101 116.6464 288° West  Level FlightAware Approximate
05:18AM -32.3091 116.6428 288° West  Level FlightAware Approximate
05:19AM -32.3081 116.6392 288° West  Level FlightAware Approximate
05:20AM -32.3071 116.6356 288° West  Level FlightAware Approximate
05:21AM -32.3061 116.6320 288° West  Level FlightAware Approximate
05:22AM -32.3052 116.6284 288° West  Level FlightAware Approximate
05:23AM -32.3042 116.6248 288° West  Level FlightAware Approximate
05:24AM -32.3032 116.6212 288° West  Level FlightAware Approximate
05:25AM -32.3022 116.6176 288° West  Level FlightAware Approximate
05:26AM -32.3012 116.6140 288° West  Level FlightAware Approximate
05:27AM -32.3002 116.6104 288° West  Level FlightAware Approximate
05:28AM -32.2992 116.6068 288° West  Level FlightAware Approximate
05:29AM -32.2982 116.6032 288° West  Level FlightAware Approximate
05:30AM -32.2972 116.5996 288° West  Level FlightAware Approximate
05:31AM -32.2962 116.5960 288° West  Level FlightAware Approximate
05:32AM -32.2953 116.5924 288° West  Level FlightAware Approximate
05:33AM -32.2943 116.5888 288° West  Level FlightAware Approximate
05:34AM -32.2933 116.5852 288° West  Level FlightAware Approximate
05:35AM -32.2923 116.5816 288° West  Level FlightAware Approximate
05:36AM -32.2913 116.5780 288° West  Level FlightAware Approximate
05:37AM -32.2903 116.5744 288° West  Level FlightAware Approximate
05:38AM -32.2893 116.5708 288° West  Level FlightAware Approximate
05:39AM -32.2883 116.5672 288° West  Level FlightAware Approximate
05:39AM -32.0561 116.1691 125° Southeast 3,500  Level Aus ATC (Calculated)
05:40AM -32.2873 116.5636 288° West  Level FlightAware Approximate
05:41AM -32.0568 116.1645 260° West  Level FlightAware Approximate
05:41AM -32.0561 116.1691 260° West 3,500  Level Aus ATC (Calculated)
05:42AM -32.0574 116.1608 260° West  Level FlightAware Approximate
05:42AM -32.0561 116.1691 260° West 3,500  Level Aus ATC (Calculated)
05:44AM -32.0568 116.1645 260° West  Level FlightAware Approximate
05:45AM -32.0574 116.1608 260° West  Level FlightAware Approximate
05:46AM -32.0579 116.1571 260° West  Level FlightAware Approximate
05:47AM -32.0584 116.1534 260° West  Level FlightAware Approximate
05:48AM -32.0590 116.1497 260° West  Level FlightAware Approximate
05:49AM -32.0595 116.1459 260° West  Level FlightAware Approximate
05:50AM -32.0601 116.1422 260° West  Level FlightAware Approximate
05:51AM -32.0606 116.1385 260° West  Level FlightAware Approximate
05:52AM -32.0611 116.1348 260° West  Level FlightAware Approximate
05:53AM -32.0617 116.1311 260° West  Level FlightAware Approximate
05:53AM -31.9451 115.9595 129° Southeast 3,500  Level Aus ATC (Calculated)
05:54AM -32.0622 116.1273 260° West  Level FlightAware Approximate
05:54AM -31.9451 115.9595 204° Southwest 100  Level Aus ATC (Calculated)
05:56AM -31.9496 115.9572 204° Southwest  Level FlightAware Approximate
05:56AM -32.0213 115.9204 24° Northeast 100  Level Aus ATC (Calculated)
05:57AM -31.9525 115.9557 204° Southwest  Level FlightAware Approximate
05:57AM -32.0974 115.8812 24° Northeast 100  Level Aus ATC (Calculated)
05:58AM -32.0247 115.9186 204° Southwest  Level FlightAware Approximate
05:59AM -32.0974 115.8774 270° West  Level FlightAware Approximate
06:00AM -32.0974 115.8811 90° East  Level FlightAware Approximate
06:01AM -32.0974 115.8849 90° East  Level FlightAware Approximate
06:02AM -32.0974 115.8811 270° West  Level FlightAware Approximate
06:03AM -32.0974 115.8849 90° East  Level FlightAware Approximate